NKS2239 KFLL-KJAX
Flight info
| Callsign | NKS2239 |
|---|---|
| Flight time | N/A |
| Altitude | 30000 |
| Route | FRSBE2 STYMY ORL/N0442F310 HAINY QUBEN2 |
| Aircraft | B738/M-SDE2E3FGHIRWXY/LB1 |
Departure
| Time | 2026-05-03 23:06 |
|---|---|
| Airport | Fort Lauderdale Hollywood International Airport (KFLL) |
Arrival
| Time | N/A |
|---|---|
| Airport | Jacksonville International Airport (KJAX) |
| Time | Latitude | Longitude | Altitude | Speed | Heading |
|---|---|---|---|---|---|
| 2026-05-03 21:33 | 26.07058 | -80.14626 | 27 ft | 0 kts | 359° |
| 2026-05-03 21:39 | 26.07339 | -80.14750 | 18 ft | 0 kts | 107° |
| 2026-05-03 22:00 | 26.07344 | -80.14767 | 17 ft | 4 kts | 102° |
| 2026-05-03 22:00 | 26.07348 | -80.14797 | 18 ft | 4 kts | 90° |
| 2026-05-03 22:01 | 26.07345 | -80.14826 | 19 ft | 4 kts | 71° |
| 2026-05-03 22:01 | 26.07332 | -80.14850 | 20 ft | 4 kts | 26° |
| 2026-05-03 22:01 | 26.07323 | -80.14854 | 19 ft | 0 kts | 1° |
| 2026-05-03 22:09 | 26.07324 | -80.14854 | 19 ft | 0 kts | 1° |
| 2026-05-03 22:12 | 26.07326 | -80.14854 | 19 ft | 4 kts | 359° |
| 2026-05-03 22:12 | 26.07396 | -80.14939 | 15 ft | 22 kts | 309° |
| 2026-05-03 22:12 | 26.07488 | -80.15089 | 14 ft | 27 kts | 274° |
| 2026-05-03 22:12 | 26.07490 | -80.15318 | 10 ft | 31 kts | 270° |
| 2026-05-03 22:13 | 26.07491 | -80.15495 | 12 ft | 22 kts | 271° |
| 2026-05-03 22:13 | 26.07493 | -80.15654 | 13 ft | 17 kts | 270° |
| 2026-05-03 22:13 | 26.07493 | -80.15700 | 13 ft | 0 kts | 270° |
| 2026-05-03 22:14 | 26.07493 | -80.15707 | 13 ft | 0 kts | 270° |
| 2026-05-03 22:15 | 26.07493 | -80.15726 | 13 ft | 11 kts | 270° |
| 2026-05-03 22:16 | 26.07493 | -80.15827 | 14 ft | 8 kts | 270° |
| 2026-05-03 22:16 | 26.07494 | -80.15845 | 14 ft | 0 kts | 270° |
| 2026-05-03 22:18 | 26.07494 | -80.15861 | 14 ft | 0 kts | 271° |
| 2026-05-03 22:20 | 26.07494 | -80.15869 | 14 ft | 7 kts | 271° |
| 2026-05-03 22:21 | 26.07494 | -80.15942 | 16 ft | 5 kts | 270° |
| 2026-05-03 22:21 | 26.07494 | -80.15947 | 16 ft | 0 kts | 270° |
| 2026-05-03 22:22 | 26.07494 | -80.15976 | 17 ft | 5 kts | 270° |
| 2026-05-03 22:22 | 26.07494 | -80.15984 | 17 ft | 0 kts | 270° |
| 2026-05-03 22:25 | 26.07494 | -80.15990 | 17 ft | 5 kts | 270° |
| 2026-05-03 22:26 | 26.07495 | -80.16031 | 18 ft | 0 kts | 271° |
| 2026-05-03 22:27 | 26.07495 | -80.16070 | 19 ft | 5 kts | 271° |
| 2026-05-03 22:27 | 26.07496 | -80.16078 | 19 ft | 0 kts | 271° |
| 2026-05-03 22:32 | 26.07496 | -80.16096 | 19 ft | 7 kts | 270° |
| 2026-05-03 22:32 | 26.07496 | -80.16132 | 19 ft | 0 kts | 270° |
| 2026-05-03 22:34 | 26.07496 | -80.16136 | 19 ft | 0 kts | 270° |
| 2026-05-03 22:35 | 26.07496 | -80.16166 | 19 ft | 7 kts | 270° |
| 2026-05-03 22:35 | 26.07496 | -80.16178 | 19 ft | 0 kts | 270° |
| 2026-05-03 22:38 | 26.07496 | -80.16180 | 19 ft | 2 kts | 270° |
| 2026-05-03 22:39 | 26.07496 | -80.16229 | 18 ft | 9 kts | 269° |
| 2026-05-03 22:39 | 26.07496 | -80.16238 | 18 ft | 0 kts | 269° |
| 2026-05-03 22:40 | 26.07496 | -80.16258 | 18 ft | 9 kts | 271° |
| 2026-05-03 22:40 | 26.07496 | -80.16338 | 17 ft | 10 kts | 270° |
| 2026-05-03 22:40 | 26.07497 | -80.16346 | 17 ft | 0 kts | 270° |
| 2026-05-03 22:42 | 26.07497 | -80.16350 | 17 ft | 0 kts | 271° |
| 2026-05-03 22:45 | 26.07497 | -80.16358 | 17 ft | 3 kts | 271° |
| 2026-05-03 22:45 | 26.07497 | -80.16375 | 17 ft | 0 kts | 271° |
| 2026-05-03 22:48 | 26.07497 | -80.16378 | 17 ft | 3 kts | 271° |
| 2026-05-03 22:49 | 26.07497 | -80.16398 | 17 ft | 4 kts | 270° |
| 2026-05-03 22:49 | 26.07497 | -80.16422 | 18 ft | 2 kts | 270° |
| 2026-05-03 22:49 | 26.07497 | -80.16461 | 18 ft | 8 kts | 270° |
| 2026-05-03 22:49 | 26.07497 | -80.16474 | 18 ft | 0 kts | 270° |
| 2026-05-03 22:50 | 26.07497 | -80.16517 | 18 ft | 9 kts | 270° |
| 2026-05-03 22:50 | 26.07497 | -80.16532 | 18 ft | 0 kts | 270° |
| 2026-05-03 22:55 | 26.07497 | -80.16544 | 18 ft | 2 kts | 270° |
| 2026-05-03 22:55 | 26.07497 | -80.16578 | 17 ft | 3 kts | 270° |
| 2026-05-03 22:55 | 26.07498 | -80.16595 | 17 ft | 2 kts | 272° |
| 2026-05-03 22:56 | 26.07503 | -80.16613 | 17 ft | 5 kts | 294° |
| 2026-05-03 22:56 | 26.07504 | -80.16616 | 17 ft | 0 kts | 295° |
| 2026-05-03 22:59 | 26.07511 | -80.16627 | 18 ft | 4 kts | 310° |
| 2026-05-03 22:59 | 26.07554 | -80.16642 | 16 ft | 5 kts | 358° |
| 2026-05-03 22:59 | 26.07555 | -80.16642 | 16 ft | 0 kts | 358° |
| 2026-05-03 23:00 | 26.07571 | -80.16643 | 15 ft | 6 kts | 358° |
| 2026-05-03 23:00 | 26.07591 | -80.16643 | 16 ft | 0 kts | 0° |
| 2026-05-03 23:03 | 26.07594 | -80.16643 | 15 ft | 0 kts | 0° |
| 2026-05-03 23:04 | 26.07598 | -80.16643 | 15 ft | 3 kts | 0° |
| 2026-05-03 23:04 | 26.07672 | -80.16631 | 14 ft | 14 kts | 32° |
| 2026-05-03 23:04 | 26.07694 | -80.16571 | 15 ft | 0 kts | 89° |
| 2026-05-03 23:05 | 26.07694 | -80.16557 | 15 ft | 3 kts | 89° |
| 2026-05-03 23:05 | 26.07693 | -80.16338 | 20 ft | 82 kts | 90° |
| 2026-05-03 23:05 | 26.07687 | -80.15273 | 146 ft | 182 kts | 90° |
| 2026-05-03 23:06 | 26.07708 | -80.13742 | 1067 ft | 209 kts | 88° |
| 2026-05-03 23:06 | 26.07795 | -80.12117 | 2203 ft | 205 kts | 85° |
| 2026-05-03 23:06 | 26.07903 | -80.10583 | 3479 ft | 198 kts | 85° |
| 2026-05-03 23:06 | 26.08144 | -80.09010 | 4116 ft | 219 kts | 76° |
| 2026-05-03 23:07 | 26.08835 | -80.07407 | 4345 ft | 251 kts | 45° |
| 2026-05-03 23:07 | 26.10410 | -80.06416 | 4895 ft | 265 kts | 18° |
| 2026-05-03 23:07 | 26.12162 | -80.05776 | 5627 ft | 270 kts | 18° |
| 2026-05-03 23:07 | 26.13952 | -80.05103 | 6404 ft | 273 kts | 17° |
| 2026-05-03 23:08 | 26.15836 | -80.04841 | 7131 ft | 275 kts | 354° |
| 2026-05-03 23:08 | 26.17686 | -80.05374 | 7876 ft | 277 kts | 340° |
| 2026-05-03 23:08 | 26.19517 | -80.06099 | 8567 ft | 280 kts | 340° |
| 2026-05-03 23:08 | 26.21329 | -80.06929 | 9238 ft | 284 kts | 328° |
| 2026-05-03 23:09 | 26.22742 | -80.08452 | 9899 ft | 285 kts | 303° |
| 2026-05-03 23:09 | 26.23612 | -80.10443 | 10336 ft | 296 kts | 292° |
| 2026-05-03 23:09 | 26.24377 | -80.12653 | 10469 ft | 314 kts | 290° |
| 2026-05-03 23:09 | 26.25171 | -80.14983 | 10588 ft | 327 kts | 291° |
| 2026-05-03 23:10 | 26.26129 | -80.17312 | 10808 ft | 334 kts | 299° |
| 2026-05-03 23:10 | 26.27337 | -80.19531 | 11147 ft | 335 kts | 302° |
| 2026-05-03 23:10 | 26.28615 | -80.21706 | 11493 ft | 336 kts | 303° |
| 2026-05-03 23:10 | 26.29891 | -80.23857 | 11808 ft | 338 kts | 303° |
| 2026-05-03 23:11 | 26.31180 | -80.26052 | 12114 ft | 339 kts | 303° |
| 2026-05-03 23:11 | 26.32468 | -80.28271 | 12402 ft | 341 kts | 302° |
| 2026-05-03 23:11 | 26.33747 | -80.30499 | 12699 ft | 342 kts | 302° |
| 2026-05-03 23:11 | 26.35026 | -80.32742 | 12977 ft | 344 kts | 302° |
| 2026-05-03 23:12 | 26.36308 | -80.34998 | 13244 ft | 345 kts | 302° |
| 2026-05-03 23:12 | 26.37595 | -80.37269 | 13503 ft | 346 kts | 302° |
| 2026-05-03 23:12 | 26.38884 | -80.39545 | 13752 ft | 348 kts | 302° |
| 2026-05-03 23:12 | 26.40179 | -80.41833 | 13996 ft | 349 kts | 302° |
| 2026-05-03 23:13 | 26.41475 | -80.44126 | 14223 ft | 350 kts | 302° |
| 2026-05-03 23:13 | 26.42776 | -80.46428 | 14445 ft | 351 kts | 302° |
| 2026-05-03 23:13 | 26.44069 | -80.48716 | 14656 ft | 352 kts | 302° |
| 2026-05-03 23:13 | 26.45376 | -80.51030 | 14858 ft | 353 kts | 302° |
| 2026-05-03 23:14 | 26.46688 | -80.53354 | 15062 ft | 354 kts | 302° |
| 2026-05-03 23:14 | 26.48257 | -80.55472 | 15231 ft | 356 kts | 318° |
| 2026-05-03 23:14 | 26.50311 | -80.57018 | 15429 ft | 357 kts | 334° |
| 2026-05-03 23:14 | 26.52662 | -80.57940 | 15621 ft | 358 kts | 343° |
| 2026-05-03 23:15 | 26.55061 | -80.58691 | 15782 ft | 359 kts | 344° |
| 2026-05-03 23:15 | 26.57480 | -80.59419 | 15936 ft | 361 kts | 345° |
| 2026-05-03 23:15 | 26.59906 | -80.60153 | 16101 ft | 361 kts | 344° |
| 2026-05-03 23:15 | 26.62337 | -80.60900 | 16250 ft | 362 kts | 344° |
| 2026-05-03 23:16 | 26.64770 | -80.61658 | 16398 ft | 363 kts | 344° |
| 2026-05-03 23:16 | 26.67201 | -80.62423 | 16538 ft | 364 kts | 344° |
| 2026-05-03 23:16 | 26.69645 | -80.63198 | 16678 ft | 364 kts | 344° |
| 2026-05-03 23:16 | 26.72085 | -80.63973 | 16806 ft | 365 kts | 343° |
| 2026-05-03 23:17 | 26.74535 | -80.64753 | 16933 ft | 366 kts | 343° |
| 2026-05-03 23:17 | 26.76981 | -80.65532 | 17054 ft | 366 kts | 343° |
| 2026-05-03 23:17 | 26.79408 | -80.66306 | 17169 ft | 367 kts | 343° |
| 2026-05-03 23:17 | 26.81897 | -80.67100 | 17305 ft | 367 kts | 343° |
| 2026-05-03 23:18 | 26.84322 | -80.67873 | 17436 ft | 367 kts | 343° |
| 2026-05-03 23:18 | 26.86780 | -80.68658 | 17548 ft | 368 kts | 343° |
| 2026-05-03 23:18 | 26.89247 | -80.69445 | 17642 ft | 369 kts | 343° |
| 2026-05-03 23:18 | 26.91721 | -80.70240 | 17753 ft | 369 kts | 343° |
| 2026-05-03 23:19 | 26.94166 | -80.71112 | 17851 ft | 370 kts | 341° |
| 2026-05-03 23:19 | 26.96607 | -80.72043 | 17946 ft | 370 kts | 341° |
| 2026-05-03 23:19 | 26.99045 | -80.72987 | 18037 ft | 371 kts | 340° |
| 2026-05-03 23:19 | 27.01487 | -80.73931 | 18126 ft | 371 kts | 341° |
| 2026-05-03 23:20 | 27.03904 | -80.74859 | 18215 ft | 372 kts | 341° |
| 2026-05-03 23:20 | 27.06354 | -80.75794 | 18278 ft | 372 kts | 341° |
| 2026-05-03 23:20 | 27.08811 | -80.76728 | 18367 ft | 372 kts | 341° |
| 2026-05-03 23:20 | 27.11269 | -80.77661 | 18441 ft | 373 kts | 341° |
| 2026-05-03 23:21 | 27.13732 | -80.78595 | 18512 ft | 373 kts | 341° |
| 2026-05-03 23:21 | 27.16190 | -80.79527 | 18582 ft | 374 kts | 341° |
| 2026-05-03 23:21 | 27.18658 | -80.80463 | 18647 ft | 374 kts | 341° |
| 2026-05-03 23:21 | 27.21127 | -80.81400 | 18707 ft | 374 kts | 341° |
| 2026-05-03 23:22 | 27.26045 | -80.83269 | 18836 ft | 375 kts | 341° |
| 2026-05-03 23:22 | 27.28526 | -80.84212 | 18888 ft | 375 kts | 341° |
| 2026-05-03 23:22 | 27.31016 | -80.85159 | 18944 ft | 376 kts | 341° |
| 2026-05-03 23:23 | 27.33486 | -80.86112 | 18996 ft | 376 kts | 340° |
| 2026-05-03 23:23 | 27.35949 | -80.87110 | 19055 ft | 376 kts | 340° |
| 2026-05-03 23:23 | 27.38404 | -80.88126 | 19149 ft | 375 kts | 339° |
| 2026-05-03 23:23 | 27.40854 | -80.89144 | 19277 ft | 374 kts | 339° |
| 2026-05-03 23:24 | 27.43256 | -80.90143 | 19390 ft | 373 kts | 339° |
| 2026-05-03 23:24 | 27.45696 | -80.91154 | 19472 ft | 373 kts | 339° |
| 2026-05-03 23:24 | 27.48136 | -80.92164 | 19540 ft | 374 kts | 339° |
| 2026-05-03 23:24 | 27.50585 | -80.93175 | 19656 ft | 376 kts | 339° |
| 2026-05-03 23:25 | 27.53066 | -80.94200 | 20397 ft | 383 kts | 339° |
| 2026-05-03 23:25 | 27.55573 | -80.95235 | 21354 ft | 385 kts | 339° |
| 2026-05-03 23:25 | 27.58091 | -80.96275 | 22257 ft | 387 kts | 339° |
| 2026-05-03 23:25 | 27.60642 | -80.97329 | 23044 ft | 392 kts | 339° |
| 2026-05-03 23:26 | 27.63223 | -80.98396 | 23768 ft | 397 kts | 339° |
| 2026-05-03 23:26 | 27.65834 | -80.99476 | 24478 ft | 402 kts | 339° |
| 2026-05-03 23:26 | 27.68479 | -81.00570 | 25173 ft | 406 kts | 339° |
| 2026-05-03 23:26 | 27.71149 | -81.01675 | 25847 ft | 411 kts | 339° |
| 2026-05-03 23:27 | 27.73843 | -81.02791 | 26477 ft | 415 kts | 339° |
| 2026-05-03 23:27 | 27.76569 | -81.03921 | 27081 ft | 419 kts | 339° |
| 2026-05-03 23:27 | 27.79287 | -81.05048 | 27671 ft | 423 kts | 339° |
| 2026-05-03 23:27 | 27.82068 | -81.06202 | 28235 ft | 427 kts | 339° |
| 2026-05-03 23:28 | 27.84865 | -81.07363 | 28768 ft | 431 kts | 339° |
| 2026-05-03 23:28 | 27.87678 | -81.08531 | 28870 ft | 428 kts | 339° |
| 2026-05-03 23:28 | 27.90469 | -81.09691 | 28974 ft | 430 kts | 339° |
| 2026-05-03 23:28 | 27.93304 | -81.10870 | 28997 ft | 435 kts | 339° |
| 2026-05-03 23:29 | 27.98971 | -81.13229 | 29005 ft | 433 kts | 339° |
| 2026-05-03 23:29 | 28.04645 | -81.15585 | 29002 ft | 433 kts | 340° |
| 2026-05-03 23:30 | 28.10351 | -81.17686 | 29002 ft | 434 kts | 342° |
| 2026-05-03 23:30 | 28.16139 | -81.19715 | 29002 ft | 434 kts | 342° |
| 2026-05-03 23:31 | 28.21887 | -81.21760 | 29002 ft | 435 kts | 342° |
| 2026-05-03 23:31 | 28.27671 | -81.23842 | 29001 ft | 436 kts | 342° |
| 2026-05-03 23:32 | 28.33461 | -81.25938 | 29001 ft | 436 kts | 342° |
| 2026-05-03 23:32 | 28.39243 | -81.28033 | 29003 ft | 437 kts | 342° |
| 2026-05-03 23:33 | 28.45042 | -81.30137 | 29001 ft | 437 kts | 342° |
| 2026-05-03 23:33 | 28.50843 | -81.32243 | 29004 ft | 438 kts | 342° |
| 2026-05-03 23:34 | 28.56771 | -81.33791 | 28997 ft | 438 kts | 355° |
| 2026-05-03 23:34 | 28.62884 | -81.34164 | 28999 ft | 439 kts | 357° |
| 2026-05-03 23:35 | 28.68996 | -81.34484 | 29001 ft | 440 kts | 357° |
| 2026-05-03 23:35 | 28.75069 | -81.34857 | 29001 ft | 440 kts | 356° |
| 2026-05-03 23:36 | 28.81186 | -81.35258 | 29001 ft | 441 kts | 356° |
| 2026-05-03 23:36 | 28.87310 | -81.35663 | 29000 ft | 440 kts | 356° |
| 2026-05-03 23:37 | 28.93414 | -81.36065 | 29000 ft | 438 kts | 356° |
| 2026-05-03 23:37 | 28.99496 | -81.36466 | 29001 ft | 437 kts | 356° |
| 2026-05-03 23:38 | 29.05571 | -81.36882 | 29002 ft | 438 kts | 356° |
| 2026-05-03 23:38 | 29.11637 | -81.37301 | 28990 ft | 432 kts | 356° |
| 2026-05-03 23:39 | 29.17601 | -81.37712 | 29008 ft | 431 kts | 356° |
| 2026-05-03 23:39 | 29.23592 | -81.38125 | 29000 ft | 431 kts | 356° |
| 2026-05-03 23:40 | 29.26592 | -81.38332 | 28446 ft | 435 kts | 356° |
| 2026-05-03 23:40 | 29.29603 | -81.38538 | 27608 ft | 433 kts | 356° |
| 2026-05-03 23:40 | 29.32602 | -81.38740 | 26730 ft | 431 kts | 356° |
| 2026-05-03 23:40 | 29.35578 | -81.38939 | 26036 ft | 424 kts | 356° |
| 2026-05-03 23:41 | 29.38504 | -81.39134 | 25317 ft | 419 kts | 356° |
| 2026-05-03 23:41 | 29.40422 | -81.39263 | 24847 ft | 416 kts | 356° |
| 2026-05-03 23:41 | 29.43292 | -81.39456 | 24162 ft | 410 kts | 356° |
| 2026-05-03 23:41 | 29.46120 | -81.39646 | 23472 ft | 405 kts | 356° |
| 2026-05-03 23:42 | 29.48920 | -81.39835 | 22788 ft | 400 kts | 356° |
| 2026-05-03 23:42 | 29.51684 | -81.40022 | 22101 ft | 396 kts | 356° |
| 2026-05-03 23:42 | 29.54386 | -81.40514 | 21383 ft | 392 kts | 342° |
| 2026-05-03 23:42 | 29.56858 | -81.41786 | 20632 ft | 389 kts | 328° |
| 2026-05-03 23:43 | 29.58959 | -81.43715 | 19894 ft | 386 kts | 314° |
| 2026-05-03 23:43 | 29.60810 | -81.45926 | 19185 ft | 382 kts | 313° |
| 2026-05-03 23:43 | 29.62626 | -81.48132 | 18476 ft | 379 kts | 313° |
| 2026-05-03 23:43 | 29.64443 | -81.50309 | 17782 ft | 375 kts | 314° |
| 2026-05-03 23:44 | 29.66257 | -81.52449 | 17073 ft | 372 kts | 314° |
| 2026-05-03 23:44 | 29.68059 | -81.54563 | 16370 ft | 369 kts | 314° |
| 2026-05-03 23:44 | 29.69857 | -81.56647 | 15664 ft | 366 kts | 315° |
| 2026-05-03 23:44 | 29.71649 | -81.58709 | 14946 ft | 363 kts | 315° |
| 2026-05-03 23:45 | 29.73428 | -81.60759 | 14174 ft | 362 kts | 315° |
| 2026-05-03 23:45 | 29.75218 | -81.62777 | 13481 ft | 358 kts | 319° |
| 2026-05-03 23:45 | 29.77303 | -81.64298 | 12874 ft | 354 kts | 336° |
| 2026-05-03 23:45 | 29.79598 | -81.65135 | 12707 ft | 340 kts | 350° |
| 2026-05-03 23:46 | 29.81945 | -81.65400 | 12543 ft | 342 kts | 355° |
| 2026-05-03 23:46 | 29.84338 | -81.65578 | 12358 ft | 348 kts | 356° |
| 2026-05-03 23:46 | 29.86759 | -81.65761 | 12175 ft | 348 kts | 355° |
| 2026-05-03 23:46 | 29.89166 | -81.65961 | 11983 ft | 346 kts | 355° |
| 2026-05-03 23:47 | 29.91562 | -81.66172 | 11811 ft | 345 kts | 355° |
| 2026-05-03 23:47 | 29.93947 | -81.66392 | 11636 ft | 343 kts | 354° |
| 2026-05-03 23:47 | 29.96278 | -81.66962 | 11457 ft | 342 kts | 341° |
| 2026-05-03 23:47 | 29.98477 | -81.67992 | 11295 ft | 341 kts | 336° |
| 2026-05-03 23:48 | 30.00652 | -81.69103 | 11072 ft | 342 kts | 335° |
| 2026-05-03 23:48 | 30.02800 | -81.70219 | 10673 ft | 331 kts | 335° |
| 2026-05-03 23:48 | 30.04872 | -81.71293 | 10290 ft | 326 kts | 335° |
| 2026-05-03 23:48 | 30.06942 | -81.72363 | 9922 ft | 325 kts | 335° |
| 2026-05-03 23:49 | 30.08999 | -81.73419 | 9552 ft | 323 kts | 335° |
| 2026-05-03 23:49 | 30.11013 | -81.74451 | 9185 ft | 321 kts | 336° |
| 2026-05-03 23:49 | 30.13054 | -81.75493 | 8807 ft | 320 kts | 336° |
| 2026-05-03 23:49 | 30.15083 | -81.76528 | 8437 ft | 318 kts | 336° |
| 2026-05-03 23:50 | 30.17104 | -81.77558 | 8067 ft | 317 kts | 336° |
| 2026-05-03 23:50 | 30.19125 | -81.78588 | 7683 ft | 316 kts | 336° |
| 2026-05-03 23:50 | 30.21144 | -81.79618 | 7312 ft | 316 kts | 336° |
| 2026-05-03 23:50 | 30.23144 | -81.80637 | 6935 ft | 312 kts | 336° |
| 2026-05-03 23:51 | 30.25111 | -81.81641 | 6557 ft | 306 kts | 336° |
| 2026-05-03 23:51 | 30.27049 | -81.82630 | 6185 ft | 303 kts | 336° |
| 2026-05-03 23:51 | 30.28979 | -81.83615 | 5924 ft | 304 kts | 336° |
| 2026-05-03 23:51 | 30.30903 | -81.84597 | 5890 ft | 305 kts | 336° |
| 2026-05-03 23:52 | 30.32837 | -81.85587 | 5888 ft | 303 kts | 336° |
| 2026-05-03 23:52 | 30.34771 | -81.86575 | 5878 ft | 304 kts | 336° |
| 2026-05-03 23:52 | 30.36702 | -81.87561 | 5867 ft | 303 kts | 336° |
| 2026-05-03 23:52 | 30.38618 | -81.88541 | 5661 ft | 296 kts | 336° |
| 2026-05-03 23:53 | 30.40460 | -81.89484 | 5485 ft | 282 kts | 336° |
| 2026-05-03 23:53 | 30.42203 | -81.90376 | 5536 ft | 264 kts | 336° |
| 2026-05-03 23:53 | 30.43862 | -81.91225 | 5655 ft | 259 kts | 335° |
| 2026-05-03 23:53 | 30.45509 | -81.92069 | 5879 ft | 260 kts | 335° |
| 2026-05-03 23:54 | 30.47179 | -81.92925 | 5878 ft | 262 kts | 335° |
| 2026-05-03 23:54 | 30.48839 | -81.93776 | 5881 ft | 260 kts | 335° |
| 2026-05-03 23:54 | 30.50471 | -81.94614 | 5879 ft | 260 kts | 335° |
| 2026-05-03 23:54 | 30.52150 | -81.95476 | 5887 ft | 261 kts | 335° |
| 2026-05-03 23:55 | 30.53807 | -81.96327 | 5884 ft | 261 kts | 335° |
| 2026-05-03 23:55 | 30.55444 | -81.97168 | 5878 ft | 260 kts | 335° |
| 2026-05-03 23:55 | 30.57097 | -81.98017 | 5883 ft | 260 kts | 335° |